Flight Track Log - Related Links

Times and Time Zones

All times are in EDT time to prevent confusion due to time zone crossing. See the SWA554 flight status page for this flight to view local times or setup timezone preferences in your user account.


Time Position Orientation Groundspeed Altitude Reporting Facility
EDT Latitude Longitude Course Direction KTS MPH feet Rate Location/Type
Mon 11:07:33 AM 33.4333 -112.0333 56° Northeast 162 186 2,000  Level Phoenix TRACON
Mon 11:08:03 AM 33.4333 -112.0667 270° West 183 211 2,900 2,133 Climbing Phoenix TRACON
Mon 11:09:03 AM 33.4500 -112.1333 287° West 216 249 5,200 2,053 Climbing Phoenix TRACON
Mon 11:09:19 AM 33.4439 -112.1397 221° Southwest 212 244 5,500 1,846 Climbing Albuquerque Center
Mon 11:10:21 AM 33.4933 -112.1800 326° Northwest 275 316 7,600 2,468 Climbing Albuquerque Center
Mon 11:11:23 AM 33.5353 -112.0686 66° East 323 372 10,600 1,742 Climbing Albuquerque Center
Mon 11:12:25 AM 33.5572 -111.9536 77° East 356 410 11,200 1,694 Climbing Albuquerque Center
Mon 11:13:00 AM 33.8575 -111.2470 56° Northeast  Level Estimated
Mon 11:13:27 AM 33.5808 -111.8333 77° East 371 427 14,100  Level Albuquerque Center
Mon 11:14:29 AM 33.6061 -111.7039 77° East 401 461 16,500 2,613 Climbing Albuquerque Center
Mon 11:15:31 AM 33.6328 -111.5661 77° East 426 490 19,500 2,661 Climbing Albuquerque Center
Mon 11:16:33 AM 33.6650 -111.3906 78° East 451 519 22,000 2,274 Climbing Albuquerque Center
Mon 11:17:35 AM 33.6981 -111.2381 75° East 473 544 24,200 2,129 Climbing Albuquerque Center
Mon 11:18:37 AM 33.7528 -111.0900 66° East 486 559 26,400 1,935 Climbing Albuquerque Center
Mon 11:19:39 AM 33.8064 -110.9361 67° East 498 573 28,200 1,694 Climbing Albuquerque Center
Mon 11:20:41 AM 33.8614 -110.7800 67° East 507 583 29,900 2,274 Climbing Albuquerque Center
Mon 11:21:43 AM 33.9283 -110.5917 67° East 512 589 32,900 1,500 Climbing Albuquerque Center
Mon 11:22:45 AM 33.9822 -110.4386 67° East 504 580 33,000 48 Climbing Albuquerque Center
Mon 11:23:47 AM 34.0322 -110.2919 68° East 495 570 33,000  Level Albuquerque Center
Mon 11:24:49 AM 34.0842 -110.1428 67° East 489 563 33,000  Level Albuquerque Center
Mon 11:25:51 AM 34.1406 -109.9800 67° East 481 554 33,000  Level Albuquerque Center
Mon 11:26:53 AM 34.1967 -109.8131 68° East 482 555 33,000  Level Albuquerque Center
Mon 11:27:55 AM 34.2472 -109.6708 67° East 482 555 33,000  Level Albuquerque Center
Mon 11:28:57 AM 34.3036 -109.5014 68° East 484 557 33,000  Level Albuquerque Center
Mon 11:29:59 AM 34.3522 -109.3564 68° East 487 560 33,000  Level Albuquerque Center
Mon 11:31:01 AM 34.4094 -109.1869 68° East 488 562 33,000  Level Albuquerque Center
Mon 11:32:03 AM 34.4544 -109.0417 69° East 485 558 33,000  Level Albuquerque Center
Mon 11:33:05 AM 34.4933 -108.8928 72° East 484 557 33,000  Level Albuquerque Center
Mon 11:34:07 AM 34.5408 -108.7222 71° East 481 554 33,000  Level Albuquerque Center
Mon 11:35:09 AM 34.5819 -108.5728 71° East 485 558 33,000  Level Albuquerque Center
Mon 11:36:11 AM 34.6306 -108.3978 71° East 490 564 33,000  Level Albuquerque Center
Mon 11:37:13 AM 34.6717 -108.2403 72° East 492 566 33,000  Level Albuquerque Center
Mon 11:38:15 AM 34.7133 -108.0839 72° East 488 562 33,000  Level Albuquerque Center
Mon 11:39:17 AM 34.7556 -107.9297 72° East 485 558 33,000  Level Albuquerque Center
Mon 11:40:19 AM 34.7964 -107.7733 72° East 484 557 33,000  Level Albuquerque Center
Mon 11:41:21 AM 34.8464 -107.5839 72° East 489 563 33,000  Level Albuquerque Center
Mon 11:42:23 AM 34.8869 -107.4283 72° East 486 559 33,000  Level Albuquerque Center
Mon 11:43:25 AM 34.9272 -107.2719 73° East 485 558 33,000  Level Albuquerque Center
Mon 11:44:27 AM 34.9733 -107.1000 72° East 489 563 33,000  Level Albuquerque Center
Mon 11:45:29 AM 35.0108 -106.9506 73° East 484 557 33,000  Level Albuquerque Center
Mon 11:46:31 AM 35.0556 -106.7806 72° East 474 545 33,000  Level Albuquerque Center
Mon 11:47:33 AM 35.1103 -106.6369 65° Northeast 479 551 33,000  Level Albuquerque Center
Mon 11:48:35 AM 35.1672 -106.4872 65° Northeast 490 564 33,000  Level Albuquerque Center
Mon 11:49:37 AM 35.2417 -106.3519 56° Northeast 484 557 33,000  Level Albuquerque Center
Mon 11:50:39 AM 35.3325 -106.1961 54° Northeast 483 556 33,000  Level Albuquerque Center
Mon 11:51:41 AM 35.4136 -106.0572 54° Northeast 487 560 33,000  Level Albuquerque Center
Mon 11:52:43 AM 35.4942 -105.9242 53° Northeast 487 560 33,000  Level Albuquerque Center
Mon 11:53:45 AM 35.5778 -105.7772 55° Northeast 483 556 33,000  Level Albuquerque Center
Mon 11:54:47 AM 35.6483 -105.6547 55° Northeast 482 555 33,000  Level Albuquerque Center
Mon 11:55:49 AM 35.7347 -105.5056 54° Northeast 481 554 33,000  Level Albuquerque Center
Mon 11:56:51 AM 35.8100 -105.3706 55° Northeast 476 548 33,000  Level Albuquerque Center
Mon 11:57:52 AM 35.8878 -105.2333 55° Northeast 480 552 33,000  Level Albuquerque Center
Mon 11:58:54 AM 35.9675 -105.0958 54° Northeast 483 556 33,000  Level Albuquerque Center
Mon 11:59:56 AM 36.0456 -104.9567 55° Northeast 486 559 33,000  Level Albuquerque Center
Mon 12:00:58 PM 36.1217 -104.8192 56° Northeast 482 555 33,000  Level Albuquerque Center
Mon 12:02:00 PM 36.2139 -104.6572 55° Northeast 486 559 33,000  Level Albuquerque Center
Mon 12:03:02 PM 36.2906 -104.5172 56° Northeast 486 559 33,000  Level Albuquerque Center
Mon 12:04:04 PM 36.3656 -104.3825 55° Northeast 476 548 33,000  Level Albuquerque Center
Mon 12:05:06 PM 36.4428 -104.2439 55° Northeast 480 552 33,000  Level Albuquerque Center
Mon 12:06:08 PM 36.5197 -104.1078 55° Northeast 478 550 33,000  Level Albuquerque Center
Mon 12:07:09 PM 36.5961 -103.9717 55° Northeast 476 548 33,000  Level Albuquerque Center
Mon 12:08:11 PM 36.6758 -103.8244 56° Northeast 478 550 33,000  Level Albuquerque Center
Mon 12:09:13 PM 36.7464 -103.6928 56° Northeast 478 550 33,000  Level Albuquerque Center
Mon 12:10:15 PM 36.8300 -103.5406 56° Northeast 479 551 33,000  Level Albuquerque Center
Mon 12:11:17 PM 36.8997 -103.4097 56° Northeast 477 549 33,000  Level Albuquerque Center
Mon 12:12:19 PM 36.9819 -103.2567 56° Northeast 476 548 33,000  Level Albuquerque Center
Mon 12:13:21 PM 37.0517 -103.1272 56° Northeast 474 545 33,000  Level Albuquerque Center
Mon 12:14:23 PM 37.1328 -102.9736 56° Northeast 475 547 33,000  Level Albuquerque Center
Mon 12:15:25 PM 37.2025 -102.8417 56° Northeast 475 547 33,000  Level Albuquerque Center
Mon 12:16:27 PM 37.2853 -102.6881 56° Northeast 476 548 33,000  Level Albuquerque Center
Mon 12:17:28 PM 37.3544 -102.5547 57° Northeast 476 548 33,000  Level Albuquerque Center
Mon 12:18:30 PM 37.4272 -102.4186 56° Northeast 481 554 33,000  Level Albuquerque Center
Mon 12:19:32 PM 37.5086 -102.2631 57° Northeast 476 548 33,000  Level Albuquerque Center
Mon 12:20:34 PM 37.5767 -102.1292 57° Northeast 473 544 33,000  Level Albuquerque Center
Mon 12:22:59 PM 37.7481 -101.7942 57° Northeast 472 543 33,000  Level Kansas City Center
Mon 12:24:01 PM 37.8286 -101.6369 57° Northeast 475 547 33,000  Level Kansas City Center
Mon 12:25:01 PM 37.8967 -101.5025 57° Northeast 473 544 33,000  Level Kansas City Center
Mon 12:26:02 PM 37.9656 -101.3675 57° Northeast 473 544 33,000  Level Kansas City Center
Mon 12:27:06 PM 38.0458 -101.2086 57° Northeast 475 547 33,000  Level Kansas City Center
Mon 12:28:07 PM 38.1139 -101.0717 58° Northeast 476 548 33,000  Level Kansas City Center
Mon 12:29:09 PM 38.1944 -100.9125 57° Northeast 476 548 33,000  Level Kansas City Center
Mon 12:30:10 PM 38.2617 -100.7772 58° Northeast 472 543 33,000 48 Level Kansas City Center
Mon 12:31:14 PM 38.3294 -100.6414 58° Northeast 474 545 33,100 532 Climbing Kansas City Center
Mon 12:32:14 PM 38.4122 -100.4728 58° Northeast 493 567 34,100 1,240 Climbing Kansas City Center
Mon 12:33:15 PM 38.4842 -100.3258 58° Northeast 506 582 35,600 1,306 Climbing Kansas City Center
Mon 12:34:18 PM 38.5678 -100.1544 58° Northeast 508 585 36,800 1,065 Climbing Kansas City Center
Mon 12:35:19 PM 38.6419 -100.0042 58° Northeast 517 595 37,800 1,091 Climbing Kansas City Center
Mon 12:36:19 PM 38.7272 -99.8281 58° Northeast 521 600 39,000 581 Climbing Kansas City Center
Mon 12:37:23 PM 38.7983 -99.6775 59° Northeast 518 596 39,000  Level Kansas City Center
Mon 12:38:24 PM 38.8744 -99.5208 58° Northeast 514 592 39,000  Level Kansas City Center
Mon 12:39:25 PM 38.9489 -99.3656 58° Northeast 511 588 39,000  Level Kansas City Center
Mon 12:40:28 PM 39.0233 -99.2092 58° Northeast 511 588 39,000  Level Kansas City Center
Mon 12:41:28 PM 39.1000 -99.0508 58° Northeast 518 596 39,000  Level Kansas City Center
Mon 12:42:32 PM 39.1728 -98.8950 59° Northeast 509 586 39,000  Level Kansas City Center
Mon 12:43:32 PM 39.2508 -98.7267 59° Northeast 502 578 39,000  Level Kansas City Center
Mon 12:44:33 PM 39.3311 -98.5558 59° Northeast 506 582 39,000  Level Kansas City Center
Mon 12:45:37 PM 39.4036 -98.3950 60° Northeast 515 593 39,000  Level Kansas City Center
Mon 12:46:37 PM 39.4769 -98.2392 59° Northeast 510 587 39,000  Level Kansas City Center
Mon 12:47:41 PM 39.5517 -98.0769 59° Northeast 509 586 39,000 -558 Level Kansas City Center
Mon 12:48:46 PM 39.6336 -97.8964 59° Northeast 509 586 37,800 -992 Descending Minneapolis Center
Mon 12:49:48 PM 39.7031 -97.7428 60° Northeast 500 575 36,900 -919 Descending Minneapolis Center
Mon 12:50:50 PM 39.7772 -97.5814 59° Northeast 512 589 35,900 -927 Descending Minneapolis Center
Mon 12:51:51 PM 39.8478 -97.4222 60° Northeast 513 590 35,000 -439 Descending Minneapolis Center
Mon 12:52:53 PM 39.9239 -97.2514 60° Northeast 497 572 35,000  Level Minneapolis Center
Mon 12:53:55 PM 39.9881 -97.0967 62° Northeast 489 563 35,000  Level Minneapolis Center
Mon 12:54:56 PM 40.0344 -96.9672 65° Northeast 491 565 35,000  Level Minneapolis Center
Mon 12:55:59 PM 40.1042 -96.7764 64° Northeast 489 563 35,000  Level Minneapolis Center
Mon 12:57:12 PM 40.1636 -96.6147 64° Northeast 492 566 35,000  Level Minneapolis Center
Mon 12:58:14 PM 40.2450 -96.3906 65° Northeast 490 564 35,000  Level Minneapolis Center
Mon 12:59:16 PM 40.3031 -96.2297 65° Northeast 490 564 35,000  Level Minneapolis Center
Mon 01:00:18 PM 40.3611 -96.0678 65° Northeast 491 565 35,000  Level Minneapolis Center
Mon 01:01:20 PM 40.4181 -95.9050 65° Northeast 493 567 35,000  Level Minneapolis Center
Mon 01:02:22 PM 40.4761 -95.7411 65° Northeast 495 570 35,000  Level Minneapolis Center
Mon 01:03:23 PM 40.5339 -95.5789 65° Northeast 495 570 35,000 -439 Level Minneapolis Center
Mon 01:04:25 PM 40.6014 -95.3831 66° East 493 567 34,100 -871 Descending Minneapolis Center
Mon 01:05:27 PM 40.6592 -95.2217 65° Northeast 492 566 33,200 -919 Descending Minneapolis Center
Mon 01:06:29 PM 40.7142 -95.0597 66° East 488 562 32,200 -968 Descending Minneapolis Center
Mon 01:07:31 PM 40.7711 -94.8975 65° Northeast 489 563 31,200 -581 Descending Minneapolis Center
Mon 01:08:33 PM 40.8244 -94.7386 66° East 482 555 31,000 -98 Descending Minneapolis Center
Mon 01:09:34 PM 40.8792 -94.5781 66° East 480 552 31,000  Level Minneapolis Center
Mon 01:10:36 PM 40.9433 -94.3814 67° East 492 566 31,000  Level Minneapolis Center
Mon 01:11:38 PM 41.0000 -94.2150 66° East 498 573 31,000  Level Minneapolis Center
Mon 01:12:40 PM 41.0556 -94.0475 66° East 499 574 31,000  Level Minneapolis Center
Mon 01:13:42 PM 41.1114 -93.8806 66° East 499 574 31,000  Level Minneapolis Center
Mon 01:14:44 PM 41.1683 -93.7111 66° East 502 578 31,000  Level Minneapolis Center
Mon 01:15:45 PM 41.2314 -93.5497 63° Northeast 498 573 31,000  Level Minneapolis Center
Mon 01:16:47 PM 41.3081 -93.3544 62° Northeast 498 573 31,000  Level Minneapolis Center
Mon 01:17:49 PM 41.3694 -93.1903 63° Northeast 497 572 31,000  Level Minneapolis Center
Mon 01:18:51 PM 41.4294 -93.0297 63° Northeast 491 565 31,000  Level Minneapolis Center
Mon 01:19:53 PM 41.4911 -92.8683 63° Northeast 491 565 31,000  Level Minneapolis Center
Mon 01:20:55 PM 41.5514 -92.7064 64° Northeast 490 564 31,000  Level Minneapolis Center
Mon 01:21:44 PM 41.6044 -92.5617 64° Northeast 489 563 31,000  Level Chicago Center
Mon 01:22:46 PM 41.6633 -92.4000 64° Northeast 490 564 31,000  Level Chicago Center
Mon 01:23:48 PM 41.7242 -92.2364 63° Northeast 493 567 31,000  Level Chicago Center
Mon 01:24:50 PM 41.7961 -92.0397 64° Northeast 497 572 31,000  Level Chicago Center
Mon 01:25:51 PM 41.8564 -91.8719 64° Northeast 503 579 31,000  Level Chicago Center
Mon 01:26:53 PM 41.9103 -91.7006 67° East 506 582 31,000  Level Chicago Center
Mon 01:27:55 PM 41.9567 -91.5233 71° East 510 587 31,000  Level Chicago Center
Mon 01:28:57 PM 42.0028 -91.3481 70° East 507 583 31,000 -532 Level Chicago Center
Mon 01:29:59 PM 42.0561 -91.1408 71° East 500 575 29,900 -927 Descending Chicago Center
Mon 01:31:00 PM 42.1011 -90.9669 71° East 497 572 29,100 -439 Descending Chicago Center
Mon 01:32:02 PM 42.1433 -90.7967 71° East 491 565 29,000 -48 Descending Chicago Center
Mon 01:33:04 PM 42.1869 -90.6211 71° East 497 572 29,000  Level Chicago Center
Mon 01:34:06 PM 42.2308 -90.4483 71° East 495 570 29,000 -97 Level Chicago Center
Mon 01:35:08 PM 42.2831 -90.2392 71° East 496 571 28,800 -585 Descending Chicago Center
Mon 01:36:09 PM 42.3261 -90.0658 71° East 493 567 27,800 -976 Descending Chicago Center
Mon 01:37:11 PM 42.3711 -89.8794 72° East 489 563 26,800 -968 Descending Chicago Center
Mon 01:38:13 PM 42.4122 -89.7081 72° East 483 556 25,800 -1,306 Descending Chicago Center
Mon 01:39:15 PM 42.4547 -89.5375 71° East 478 550 24,100 -1,317 Descending Chicago Center
Mon 01:40:16 PM 42.4931 -89.3742 72° East 462 532 23,100 -1,659 Descending Chicago Center
Mon 01:41:18 PM 42.5317 -89.2122 72° East 455 524 20,700 -2,565 Descending Chicago Center
Mon 01:42:20 PM 42.5722 -89.0283 73° East 442 509 17,800 -2,516 Descending Chicago Center
Mon 01:43:22 PM 42.6006 -88.8731 76° East 428 493 15,500 -2,226 Descending Chicago Center
Mon 01:44:24 PM 42.6283 -88.7203 76° East 421 484 13,200 -2,195 Descending Chicago Center
Mon 01:45:25 PM 42.6550 -88.5756 76° East 402 463 11,000 -1,463 Descending Chicago Center
Mon 01:46:27 PM 42.6794 -88.4411 76° East 373 429 10,200 -871 Descending Chicago Center
Mon 01:47:29 PM 42.7008 -88.3256 76° East 323 372 9,200 -1,355 Descending Chicago Center
Mon 01:48:31 PM 42.7114 -88.1889 84° East 314 361 7,400 -1,805 Descending Chicago Center
Mon 01:49:32 PM 42.7247 -88.0772 81° East 302 348 5,500 -1,707 Descending Chicago Center
Mon 01:50:34 PM 42.7378 -87.9658 81° East 300 345 3,900 -968 Descending Chicago Center
Mon 01:51:36 PM 42.7872 -87.9192 35° Northeast 245 282 3,500 -581 Descending Chicago Center
Mon 01:52:38 PM 42.8317 -87.9142 North 185 213 2,700 -745 Descending Chicago Center
Mon 01:53:53 PM 42.8833 -87.9000 11° North 125 144 1,800 -711 Descending Milwaukee TRACON
Mon 01:54:53 PM 42.9167 -87.9000 360° North 131 151 1,100 -700 Descending Milwaukee TRACON
Mon 01:56:00 PM 42.9333 -87.8833 11° North  Level FlightAware Approximate

Login

Don't have an account? Register now (free) for customized features, flight alerts, and more!